sensor_id;sensor_type;location;lat;lon;timestamp;temperature;humidity
51557;DHT22;38766;53.194;5.532;2022-12-20T00:02:17;9.10;99.90
51557;DHT22;38766;53.194;5.532;2022-12-20T00:13:58;9.20;99.90
51557;DHT22;38766;53.194;5.532;2022-12-20T00:21:59;9.20;99.90
51557;DHT22;38766;53.194;5.532;2022-12-20T00:24:28;9.20;99.90
51557;DHT22;38766;53.194;5.532;2022-12-20T00:47:05;9.10;99.90
51557;DHT22;38766;53.194;5.532;2022-12-20T00:55:20;9.10;99.90
51557;DHT22;38766;53.194;5.532;2022-12-20T00:57:46;9.10;99.90
51557;DHT22;38766;53.194;5.532;2022-12-20T01:00:12;9.30;99.90
51557;DHT22;38766;53.194;5.532;2022-12-20T01:02:37;9.10;99.90
51557;DHT22;38766;53.194;5.532;2022-12-20T01:10:28;9.10;99.90
51557;DHT22;38766;53.194;5.532;2022-12-20T01:18:22;8.90;99.90
51557;DHT22;38766;53.194;5.532;2022-12-20T01:20:47;8.90;99.90
51557;DHT22;38766;53.194;5.532;2022-12-20T01:29:15;8.80;99.90
51557;DHT22;38766;53.194;5.532;2022-12-20T01:37:05;8.80;99.90
51557;DHT22;38766;53.194;5.532;2022-12-20T01:42:24;8.70;99.90
51557;DHT22;38766;53.194;5.532;2022-12-20T01:47:15;8.60;99.90
51557;DHT22;38766;53.194;5.532;2022-12-20T02:31:34;8.70;99.90
51557;DHT22;38766;53.194;5.532;2022-12-20T02:36:43;8.60;99.90
51557;DHT22;38766;53.194;5.532;2022-12-20T02:39:12;8.50;99.90
51557;DHT22;38766;53.194;5.532;2022-12-20T02:41:45;8.60;99.90
51557;DHT22;38766;53.194;5.532;2022-12-20T02:44:14;8.60;99.90
51557;DHT22;38766;53.194;5.532;2022-12-20T02:47:01;8.60;99.90
51557;DHT22;38766;53.194;5.532;2022-12-20T02:49:32;8.60;99.90
51557;DHT22;38766;53.194;5.532;2022-12-20T02:52:00;8.60;99.90
51557;DHT22;38766;53.194;5.532;2022-12-20T02:54:27;8.60;99.90
51557;DHT22;38766;53.194;5.532;2022-12-20T02:57:00;8.70;99.90
51557;DHT22;38766;53.194;5.532;2022-12-20T02:59:33;8.60;99.90
51557;DHT22;38766;53.194;5.532;2022-12-20T03:02:01;8.60;99.90
51557;DHT22;38766;53.194;5.532;2022-12-20T03:04:29;8.60;99.90
51557;DHT22;38766;53.194;5.532;2022-12-20T03:07:05;8.60;99.90
51557;DHT22;38766;53.194;5.532;2022-12-20T03:09:32;8.60;99.90
51557;DHT22;38766;53.194;5.532;2022-12-20T03:11:58;8.60;99.90
51557;DHT22;38766;53.194;5.532;2022-12-20T03:14:24;8.70;99.90
51557;DHT22;38766;53.194;5.532;2022-12-20T03:16:51;8.80;99.90
51557;DHT22;38766;53.194;5.532;2022-12-20T03:19:16;8.70;99.90
51557;DHT22;38766;53.194;5.532;2022-12-20T03:21:42;8.80;99.90
51557;DHT22;38766;53.194;5.532;2022-12-20T03:24:08;8.80;99.90
51557;DHT22;38766;53.194;5.532;2022-12-20T03:26:38;8.90;99.90
51557;DHT22;38766;53.194;5.532;2022-12-20T03:29:04;8.90;99.90
51557;DHT22;38766;53.194;5.532;2022-12-20T03:31:29;8.90;99.90
51557;DHT22;38766;53.194;5.532;2022-12-20T03:33:56;8.80;99.90
51557;DHT22;38766;53.194;5.532;2022-12-20T03:36:22;8.90;99.90
51557;DHT22;38766;53.194;5.532;2022-12-20T03:38:52;8.90;99.90
51557;DHT22;38766;53.194;5.532;2022-12-20T03:41:18;8.90;99.90
51557;DHT22;38766;53.194;5.532;2022-12-20T03:43:45;8.90;99.90
51557;DHT22;38766;53.194;5.532;2022-12-20T03:46:11;8.80;99.90
51557;DHT22;38766;53.194;5.532;2022-12-20T03:48:37;8.80;99.90
51557;DHT22;38766;53.194;5.532;2022-12-20T03:51:02;8.80;99.90
51557;DHT22;38766;53.194;5.532;2022-12-20T03:53:28;8.90;99.90
51557;DHT22;38766;53.194;5.532;2022-12-20T03:55:54;8.90;99.90
51557;DHT22;38766;53.194;5.532;2022-12-20T03:58:19;8.90;99.90
51557;DHT22;38766;53.194;5.532;2022-12-20T04:00:45;8.90;99.90
51557;DHT22;38766;53.194;5.532;2022-12-20T04:03:10;8.90;99.90
51557;DHT22;38766;53.194;5.532;2022-12-20T04:05:36;8.90;99.90
51557;DHT22;38766;53.194;5.532;2022-12-20T04:08:02;9.00;99.90
51557;DHT22;38766;53.194;5.532;2022-12-20T04:10:27;9.10;99.90
51557;DHT22;38766;53.194;5.532;2022-12-20T04:12:53;9.10;99.90
51557;DHT22;38766;53.194;5.532;2022-12-20T04:15:19;9.20;99.90
51557;DHT22;38766;53.194;5.532;2022-12-20T04:17:44;9.20;99.90
51557;DHT22;38766;53.194;5.532;2022-12-20T04:20:13;9.20;99.90
51557;DHT22;38766;53.194;5.532;2022-12-20T04:22:49;9.30;99.90
51557;DHT22;38766;53.194;5.532;2022-12-20T04:25:17;9.40;99.90
51557;DHT22;38766;53.194;5.532;2022-12-20T04:27:43;9.30;99.90
51557;DHT22;38766;53.194;5.532;2022-12-20T04:30:10;9.40;99.90
51557;DHT22;38766;53.194;5.532;2022-12-20T04:32:36;9.40;99.90
51557;DHT22;38766;53.194;5.532;2022-12-20T04:35:02;9.30;99.90
51557;DHT22;38766;53.194;5.532;2022-12-20T04:37:29;9.40;99.90
51557;DHT22;38766;53.194;5.532;2022-12-20T04:39:54;9.40;99.90
51557;DHT22;38766;53.194;5.532;2022-12-20T04:42:21;9.40;99.90
51557;DHT22;38766;53.194;5.532;2022-12-20T04:44:47;9.40;99.90
51557;DHT22;38766;53.194;5.532;2022-12-20T04:47:12;9.40;99.90
51557;DHT22;38766;53.194;5.532;2022-12-20T04:49:38;9.40;99.90
51557;DHT22;38766;53.194;5.532;2022-12-20T04:52:04;9.40;99.90
51557;DHT22;38766;53.194;5.532;2022-12-20T04:54:48;9.30;99.90
51557;DHT22;38766;53.194;5.532;2022-12-20T04:57:14;9.30;99.90
51557;DHT22;38766;53.194;5.532;2022-12-20T04:59:40;9.30;99.90
51557;DHT22;38766;53.194;5.532;2022-12-20T05:02:05;9.20;99.90
51557;DHT22;38766;53.194;5.532;2022-12-20T05:04:31;9.20;99.90
51557;DHT22;38766;53.194;5.532;2022-12-20T05:06:57;9.20;99.90
51557;DHT22;38766;53.194;5.532;2022-12-20T05:09:22;9.20;99.90
51557;DHT22;38766;53.194;5.532;2022-12-20T05:11:49;9.30;99.90
51557;DHT22;38766;53.194;5.532;2022-12-20T05:14:15;9.30;99.90
51557;DHT22;38766;53.194;5.532;2022-12-20T05:16:40;9.30;99.90
51557;DHT22;38766;53.194;5.532;2022-12-20T05:19:06;9.30;99.90
51557;DHT22;38766;53.194;5.532;2022-12-20T05:21:32;9.30;99.90
51557;DHT22;38766;53.194;5.532;2022-12-20T05:24:16;9.30;99.90
51557;DHT22;38766;53.194;5.532;2022-12-20T05:27:00;9.30;99.90
51557;DHT22;38766;53.194;5.532;2022-12-20T05:29:26;9.40;99.90
51557;DHT22;38766;53.194;5.532;2022-12-20T05:31:51;9.40;99.90
51557;DHT22;38766;53.194;5.532;2022-12-20T05:34:18;9.50;99.90
51557;DHT22;38766;53.194;5.532;2022-12-20T05:36:43;9.40;99.90
51557;DHT22;38766;53.194;5.532;2022-12-20T05:39:09;9.50;99.90
51557;DHT22;38766;53.194;5.532;2022-12-20T05:41:36;9.50;99.90
51557;DHT22;38766;53.194;5.532;2022-12-20T05:44:02;9.50;99.90
51557;DHT22;38766;53.194;5.532;2022-12-20T05:46:28;9.60;99.90
51557;DHT22;38766;53.194;5.532;2022-12-20T05:48:53;9.50;99.90
51557;DHT22;38766;53.194;5.532;2022-12-20T05:51:19;9.60;99.90
51557;DHT22;38766;53.194;5.532;2022-12-20T05:53:45;9.60;99.90
51557;DHT22;38766;53.194;5.532;2022-12-20T05:56:10;9.60;99.90
51557;DHT22;38766;53.194;5.532;2022-12-20T05:58:36;9.70;99.90
51557;DHT22;38766;53.194;5.532;2022-12-20T06:01:04;9.60;99.90
51557;DHT22;38766;53.194;5.532;2022-12-20T06:03:30;9.60;99.90
51557;DHT22;38766;53.194;5.532;2022-12-20T06:05:56;9.60;99.90
51557;DHT22;38766;53.194;5.532;2022-12-20T06:08:22;9.60;99.90
51557;DHT22;38766;53.194;5.532;2022-12-20T06:10:49;9.60;99.90
51557;DHT22;38766;53.194;5.532;2022-12-20T06:13:15;9.50;99.90
51557;DHT22;38766;53.194;5.532;2022-12-20T06:15:41;9.60;99.90
51557;DHT22;38766;53.194;5.532;2022-12-20T06:18:07;9.60;99.90
51557;DHT22;38766;53.194;5.532;2022-12-20T06:20:33;9.60;99.90
51557;DHT22;38766;53.194;5.532;2022-12-20T06:22:59;9.50;99.90
51557;DHT22;38766;53.194;5.532;2022-12-20T06:25:25;9.50;99.90
51557;DHT22;38766;53.194;5.532;2022-12-20T06:27:51;9.50;99.90
51557;DHT22;38766;53.194;5.532;2022-12-20T06:30:17;9.50;99.90
51557;DHT22;38766;53.194;5.532;2022-12-20T06:32:43;9.40;99.90
51557;DHT22;38766;53.194;5.532;2022-12-20T06:35:09;9.40;99.90
51557;DHT22;38766;53.194;5.532;2022-12-20T06:37:35;9.40;99.90
51557;DHT22;38766;53.194;5.532;2022-12-20T06:40:01;9.40;99.90
51557;DHT22;38766;53.194;5.532;2022-12-20T06:42:34;9.40;99.90
51557;DHT22;38766;53.194;5.532;2022-12-20T06:45:00;9.30;99.90
51557;DHT22;38766;53.194;5.532;2022-12-20T06:47:26;9.30;99.90
51557;DHT22;38766;53.194;5.532;2022-12-20T06:49:51;9.30;99.90
51557;DHT22;38766;53.194;5.532;2022-12-20T06:52:17;9.30;99.90
51557;DHT22;38766;53.194;5.532;2022-12-20T06:54:43;9.30;99.90
51557;DHT22;38766;53.194;5.532;2022-12-20T06:57:09;9.20;99.90
51557;DHT22;38766;53.194;5.532;2022-12-20T06:59:34;9.30;99.90
51557;DHT22;38766;53.194;5.532;2022-12-20T07:02:00;9.30;99.90
51557;DHT22;38766;53.194;5.532;2022-12-20T07:04:26;9.30;99.90
51557;DHT22;38766;53.194;5.532;2022-12-20T07:06:52;9.30;99.90
51557;DHT22;38766;53.194;5.532;2022-12-20T07:09:17;9.40;99.90
51557;DHT22;38766;53.194;5.532;2022-12-20T07:11:43;9.40;99.90
51557;DHT22;38766;53.194;5.532;2022-12-20T07:14:09;9.40;99.90
51557;DHT22;38766;53.194;5.532;2022-12-20T07:16:35;9.40;99.90
51557;DHT22;38766;53.194;5.532;2022-12-20T07:19:01;9.40;99.90
51557;DHT22;38766;53.194;5.532;2022-12-20T07:21:27;9.40;99.90
51557;DHT22;38766;53.194;5.532;2022-12-20T07:23:54;9.40;99.90
51557;DHT22;38766;53.194;5.532;2022-12-20T07:26:20;9.50;99.90
51557;DHT22;38766;53.194;5.532;2022-12-20T07:28:46;9.40;99.90
51557;DHT22;38766;53.194;5.532;2022-12-20T07:31:11;9.50;99.90
51557;DHT22;38766;53.194;5.532;2022-12-20T07:33:37;9.50;99.90
51557;DHT22;38766;53.194;5.532;2022-12-20T07:36:10;9.50;99.90
51557;DHT22;38766;53.194;5.532;2022-12-20T07:38:36;9.50;99.90
51557;DHT22;38766;53.194;5.532;2022-12-20T07:41:07;9.50;99.90
51557;DHT22;38766;53.194;5.532;2022-12-20T07:43:33;9.50;99.90
51557;DHT22;38766;53.194;5.532;2022-12-20T07:45:59;9.50;99.90
51557;DHT22;38766;53.194;5.532;2022-12-20T07:48:24;9.50;99.90
51557;DHT22;38766;53.194;5.532;2022-12-20T07:50:57;9.50;99.90
51557;DHT22;38766;53.194;5.532;2022-12-20T07:53:24;9.50;99.90
51557;DHT22;38766;53.194;5.532;2022-12-20T07:55:51;9.50;99.90
51557;DHT22;38766;53.194;5.532;2022-12-20T07:58:17;9.50;99.90
51557;DHT22;38766;53.194;5.532;2022-12-20T08:00:44;9.50;99.90
51557;DHT22;38766;53.194;5.532;2022-12-20T08:03:29;9.50;99.90
51557;DHT22;38766;53.194;5.532;2022-12-20T08:05:59;9.50;99.90
51557;DHT22;38766;53.194;5.532;2022-12-20T08:08:29;9.50;99.90
51557;DHT22;38766;53.194;5.532;2022-12-20T08:10:56;9.50;99.90
51557;DHT22;38766;53.194;5.532;2022-12-20T08:13:25;9.50;99.90
51557;DHT22;38766;53.194;5.532;2022-12-20T08:15:51;9.50;99.90
51557;DHT22;38766;53.194;5.532;2022-12-20T08:18:16;9.50;99.90
51557;DHT22;38766;53.194;5.532;2022-12-20T08:20:42;9.60;99.90
51557;DHT22;38766;53.194;5.532;2022-12-20T08:23:08;9.50;99.90
51557;DHT22;38766;53.194;5.532;2022-12-20T08:25:34;9.50;99.90
51557;DHT22;38766;53.194;5.532;2022-12-20T08:28:00;9.60;99.90
51557;DHT22;38766;53.194;5.532;2022-12-20T08:30:27;9.60;99.90
51557;DHT22;38766;53.194;5.532;2022-12-20T08:32:54;9.60;99.90
51557;DHT22;38766;53.194;5.532;2022-12-20T08:35:20;9.70;99.90
51557;DHT22;38766;53.194;5.532;2022-12-20T08:37:45;9.70;99.90
51557;DHT22;38766;53.194;5.532;2022-12-20T08:40:11;9.70;99.90
51557;DHT22;38766;53.194;5.532;2022-12-20T08:42:37;9.70;99.90
51557;DHT22;38766;53.194;5.532;2022-12-20T08:45:03;9.80;99.90
51557;DHT22;38766;53.194;5.532;2022-12-20T08:47:29;9.90;99.90
51557;DHT22;38766;53.194;5.532;2022-12-20T08:49:55;10.00;99.90
51557;DHT22;38766;53.194;5.532;2022-12-20T08:52:21;10.00;99.90
51557;DHT22;38766;53.194;5.532;2022-12-20T08:54:46;10.00;99.90
51557;DHT22;38766;53.194;5.532;2022-12-20T08:57:12;10.10;99.90
51557;DHT22;38766;53.194;5.532;2022-12-20T08:59:38;10.10;99.90
51557;DHT22;38766;53.194;5.532;2022-12-20T09:02:04;10.10;99.90
51557;DHT22;38766;53.194;5.532;2022-12-20T09:04:30;10.10;99.90
51557;DHT22;38766;53.194;5.532;2022-12-20T09:06:56;10.20;99.90
51557;DHT22;38766;53.194;5.532;2022-12-20T09:09:21;10.20;99.90
51557;DHT22;38766;53.194;5.532;2022-12-20T09:11:47;10.20;99.90
51557;DHT22;38766;53.194;5.532;2022-12-20T09:14:12;10.20;99.90
51557;DHT22;38766;53.194;5.532;2022-12-20T09:16:38;10.20;99.90
51557;DHT22;38766;53.194;5.532;2022-12-20T09:19:04;10.20;99.90
51557;DHT22;38766;53.194;5.532;2022-12-20T09:21:31;10.30;99.90
51557;DHT22;38766;53.194;5.532;2022-12-20T09:23:57;10.30;99.90
51557;DHT22;38766;53.194;5.532;2022-12-20T09:26:23;10.20;99.90
51557;DHT22;38766;53.194;5.532;2022-12-20T09:28:49;10.20;99.90
51557;DHT22;38766;53.194;5.532;2022-12-20T09:31:18;10.20;99.90
51557;DHT22;38766;53.194;5.532;2022-12-20T09:33:44;10.10;99.90
51557;DHT22;38766;53.194;5.532;2022-12-20T09:36:12;10.10;99.90
51557;DHT22;38766;53.194;5.532;2022-12-20T09:38:38;10.10;99.90
51557;DHT22;38766;53.194;5.532;2022-12-20T09:41:07;10.10;99.90
51557;DHT22;38766;53.194;5.532;2022-12-20T09:43:34;10.10;99.90
51557;DHT22;38766;53.194;5.532;2022-12-20T09:46:01;10.10;99.90
51557;DHT22;38766;53.194;5.532;2022-12-20T09:48:34;10.10;99.90
51557;DHT22;38766;53.194;5.532;2022-12-20T09:54:51;10.10;99.90
51557;DHT22;38766;53.194;5.532;2022-12-20T10:00:02;10.00;99.90
51557;DHT22;38766;53.194;5.532;2022-12-20T10:02:28;10.00;99.90
51557;DHT22;38766;53.194;5.532;2022-12-20T10:04:55;10.00;99.90
51557;DHT22;38766;53.194;5.532;2022-12-20T10:10:22;9.90;99.90
51557;DHT22;38766;53.194;5.532;2022-12-20T10:13:12;10.00;99.90
51557;DHT22;38766;53.194;5.532;2022-12-20T10:15:52;9.90;99.90
51557;DHT22;38766;53.194;5.532;2022-12-20T10:18:43;9.90;99.90
51557;DHT22;38766;53.194;5.532;2022-12-20T10:23:49;9.90;99.90
51557;DHT22;38766;53.194;5.532;2022-12-20T10:26:21;9.90;99.90
51557;DHT22;38766;53.194;5.532;2022-12-20T10:28:47;9.90;99.90
51557;DHT22;38766;53.194;5.532;2022-12-20T10:31:15;9.90;99.90
51557;DHT22;38766;53.194;5.532;2022-12-20T10:33:42;9.90;99.90
51557;DHT22;38766;53.194;5.532;2022-12-20T10:36:33;9.90;99.90
51557;DHT22;38766;53.194;5.532;2022-12-20T10:39:01;10.00;99.90
51557;DHT22;38766;53.194;5.532;2022-12-20T10:41:32;9.90;99.90
51557;DHT22;38766;53.194;5.532;2022-12-20T10:44:05;9.90;99.90
51557;DHT22;38766;53.194;5.532;2022-12-20T10:46:42;9.90;99.90
51557;DHT22;38766;53.194;5.532;2022-12-20T10:52:10;9.80;99.90
51557;DHT22;38766;53.194;5.532;2022-12-20T10:54:39;9.80;99.90
51557;DHT22;38766;53.194;5.532;2022-12-20T10:57:23;9.80;99.90
51557;DHT22;38766;53.194;5.532;2022-12-20T10:59:57;9.90;99.90
51557;DHT22;38766;53.194;5.532;2022-12-20T11:07:53;9.80;99.90
51557;DHT22;38766;53.194;5.532;2022-12-20T11:10:21;9.70;99.90
51557;DHT22;38766;53.194;5.532;2022-12-20T11:12:59;9.80;99.90
51557;DHT22;38766;53.194;5.532;2022-12-20T11:15:27;9.80;99.90
51557;DHT22;38766;53.194;5.532;2022-12-20T11:18:10;9.80;99.90
51557;DHT22;38766;53.194;5.532;2022-12-20T11:20:39;9.80;99.90
51557;DHT22;38766;53.194;5.532;2022-12-20T11:28:47;9.70;99.90
51557;DHT22;38766;53.194;5.532;2022-12-20T11:34:21;9.60;99.90
51557;DHT22;38766;53.194;5.532;2022-12-20T11:51:02;9.70;99.90
51557;DHT22;38766;53.194;5.532;2022-12-20T11:56:03;9.60;99.90
51557;DHT22;38766;53.194;5.532;2022-12-20T11:58:56;9.60;99.90
51557;DHT22;38766;53.194;5.532;2022-12-20T12:01:46;9.60;99.90
51557;DHT22;38766;53.194;5.532;2022-12-20T12:04:21;9.60;99.90
51557;DHT22;38766;53.194;5.532;2022-12-20T12:06:56;9.60;99.90
51557;DHT22;38766;53.194;5.532;2022-12-20T12:09:38;9.60;99.90
51557;DHT22;38766;53.194;5.532;2022-12-20T12:12:31;9.60;99.90
51557;DHT22;38766;53.194;5.532;2022-12-20T12:15:24;9.60;99.90
51557;DHT22;38766;53.194;5.532;2022-12-20T12:18:17;9.60;99.90
51557;DHT22;38766;53.194;5.532;2022-12-20T12:26:14;9.70;99.90
51557;DHT22;38766;53.194;5.532;2022-12-20T12:28:42;9.60;99.90
51557;DHT22;38766;53.194;5.532;2022-12-20T12:31:16;9.70;99.90
51557;DHT22;38766;53.194;5.532;2022-12-20T12:34:00;9.70;99.90
51557;DHT22;38766;53.194;5.532;2022-12-20T12:36:39;9.70;99.90
51557;DHT22;38766;53.194;5.532;2022-12-20T12:39:16;9.70;99.90
51557;DHT22;38766;53.194;5.532;2022-12-20T12:47:20;9.80;99.90
51557;DHT22;38766;53.194;5.532;2022-12-20T12:49:49;9.70;99.90
51557;DHT22;38766;53.194;5.532;2022-12-20T12:52:41;9.70;99.90
51557;DHT22;38766;53.194;5.532;2022-12-20T13:00:56;9.80;99.90
51557;DHT22;38766;53.194;5.532;2022-12-20T13:08:50;9.70;99.90
51557;DHT22;38766;53.194;5.532;2022-12-20T13:27:15;9.70;99.90
51557;DHT22;38766;53.194;5.532;2022-12-20T13:40:47;9.50;99.90
51557;DHT22;38766;53.194;5.532;2022-12-20T13:48:21;9.60;99.90
51557;DHT22;38766;53.194;5.532;2022-12-20T13:50:54;9.50;99.90
51557;DHT22;38766;53.194;5.532;2022-12-20T13:53:25;9.60;99.90
51557;DHT22;38766;53.194;5.532;2022-12-20T13:55:55;9.50;99.90
51557;DHT22;38766;53.194;5.532;2022-12-20T13:58:32;9.50;99.90
51557;DHT22;38766;53.194;5.532;2022-12-20T14:01:06;9.50;99.90
51557;DHT22;38766;53.194;5.532;2022-12-20T14:03:40;9.50;99.90
51557;DHT22;38766;53.194;5.532;2022-12-20T14:06:09;9.50;99.90
51557;DHT22;38766;53.194;5.532;2022-12-20T14:08:42;9.50;99.90
51557;DHT22;38766;53.194;5.532;2022-12-20T14:11:11;9.50;99.90
51557;DHT22;38766;53.194;5.532;2022-12-20T14:13:37;9.40;99.90
51557;DHT22;38766;53.194;5.532;2022-12-20T14:16:09;9.40;99.90
51557;DHT22;38766;53.194;5.532;2022-12-20T14:18:35;9.40;99.90
51557;DHT22;38766;53.194;5.532;2022-12-20T14:21:02;9.40;99.90
51557;DHT22;38766;53.194;5.532;2022-12-20T14:23:36;9.40;99.90
51557;DHT22;38766;53.194;5.532;2022-12-20T14:26:04;9.40;99.90
51557;DHT22;38766;53.194;5.532;2022-12-20T14:28:39;9.40;99.90
51557;DHT22;38766;53.194;5.532;2022-12-20T14:31:22;9.40;99.90
51557;DHT22;38766;53.194;5.532;2022-12-20T14:33:48;9.40;99.90
51557;DHT22;38766;53.194;5.532;2022-12-20T14:38:48;9.40;99.90
51557;DHT22;38766;53.194;5.532;2022-12-20T14:41:37;9.40;99.90
51557;DHT22;38766;53.194;5.532;2022-12-20T14:44:14;9.40;99.90
51557;DHT22;38766;53.194;5.532;2022-12-20T14:46:47;9.40;99.90
51557;DHT22;38766;53.194;5.532;2022-12-20T14:49:23;9.40;99.90
51557;DHT22;38766;53.194;5.532;2022-12-20T14:51:51;9.50;99.90
51557;DHT22;38766;53.194;5.532;2022-12-20T14:54:19;9.40;99.90
51557;DHT22;38766;53.194;5.532;2022-12-20T14:56:47;9.50;99.90
51557;DHT22;38766;53.194;5.532;2022-12-20T14:59:17;9.40;99.90
51557;DHT22;38766;53.194;5.532;2022-12-20T15:01:49;9.50;99.90
51557;DHT22;38766;53.194;5.532;2022-12-20T15:04:32;9.40;99.90
51557;DHT22;38766;53.194;5.532;2022-12-20T15:06:59;9.50;99.90
51557;DHT22;38766;53.194;5.532;2022-12-20T15:09:26;9.50;99.90
51557;DHT22;38766;53.194;5.532;2022-12-20T15:11:52;9.50;99.90
51557;DHT22;38766;53.194;5.532;2022-12-20T15:14:33;9.50;99.90
51557;DHT22;38766;53.194;5.532;2022-12-20T15:17:02;9.50;99.90
51557;DHT22;38766;53.194;5.532;2022-12-20T15:19:28;9.50;99.90
51557;DHT22;38766;53.194;5.532;2022-12-20T15:21:55;9.40;99.90
51557;DHT22;38766;53.194;5.532;2022-12-20T15:24:24;9.40;99.90
51557;DHT22;38766;53.194;5.532;2022-12-20T15:26:51;9.40;99.90
51557;DHT22;38766;53.194;5.532;2022-12-20T15:29:22;9.40;99.90
51557;DHT22;38766;53.194;5.532;2022-12-20T15:31:49;9.40;99.90
51557;DHT22;38766;53.194;5.532;2022-12-20T15:34:29;9.40;99.90
51557;DHT22;38766;53.194;5.532;2022-12-20T15:36:56;9.30;99.90
51557;DHT22;38766;53.194;5.532;2022-12-20T15:39:25;9.30;99.90
51557;DHT22;38766;53.194;5.532;2022-12-20T15:41:51;9.30;99.90
51557;DHT22;38766;53.194;5.532;2022-12-20T15:44:20;9.30;99.90
51557;DHT22;38766;53.194;5.532;2022-12-20T15:46:47;9.20;99.90
51557;DHT22;38766;53.194;5.532;2022-12-20T15:49:15;9.20;99.90
51557;DHT22;38766;53.194;5.532;2022-12-20T15:51:42;9.20;99.90
51557;DHT22;38766;53.194;5.532;2022-12-20T15:54:34;9.20;99.90
51557;DHT22;38766;53.194;5.532;2022-12-20T15:57:04;9.20;99.90
51557;DHT22;38766;53.194;5.532;2022-12-20T15:59:32;9.20;99.90
51557;DHT22;38766;53.194;5.532;2022-12-20T16:01:58;9.20;99.90
51557;DHT22;38766;53.194;5.532;2022-12-20T16:04:25;9.20;99.90
51557;DHT22;38766;53.194;5.532;2022-12-20T16:06:53;9.20;99.90
51557;DHT22;38766;53.194;5.532;2022-12-20T16:09:19;9.20;99.90
51557;DHT22;38766;53.194;5.532;2022-12-20T16:11:45;9.20;99.90
51557;DHT22;38766;53.194;5.532;2022-12-20T16:14:20;9.20;99.90
51557;DHT22;38766;53.194;5.532;2022-12-20T16:16:46;9.20;99.90
51557;DHT22;38766;53.194;5.532;2022-12-20T16:19:14;9.20;99.90
51557;DHT22;38766;53.194;5.532;2022-12-20T16:21:48;9.20;99.90
51557;DHT22;38766;53.194;5.532;2022-12-20T16:24:17;9.20;99.90
51557;DHT22;38766;53.194;5.532;2022-12-20T16:26:43;9.20;99.90
51557;DHT22;38766;53.194;5.532;2022-12-20T16:29:10;9.20;99.90
51557;DHT22;38766;53.194;5.532;2022-12-20T16:31:40;9.10;99.90
51557;DHT22;38766;53.194;5.532;2022-12-20T16:34:14;9.10;99.90
51557;DHT22;38766;53.194;5.532;2022-12-20T16:36:40;9.10;99.90
51557;DHT22;38766;53.194;5.532;2022-12-20T16:39:06;9.10;99.90
51557;DHT22;38766;53.194;5.532;2022-12-20T16:41:35;9.10;99.90
51557;DHT22;38766;53.194;5.532;2022-12-20T16:44:02;9.10;99.90
51557;DHT22;38766;53.194;5.532;2022-12-20T16:46:30;9.10;99.90
51557;DHT22;38766;53.194;5.532;2022-12-20T16:48:57;9.10;99.90
51557;DHT22;38766;53.194;5.532;2022-12-20T16:51:32;9.10;99.90
51557;DHT22;38766;53.194;5.532;2022-12-20T16:54:04;9.10;99.90
51557;DHT22;38766;53.194;5.532;2022-12-20T16:56:30;9.00;99.90
51557;DHT22;38766;53.194;5.532;2022-12-20T16:58:57;9.00;99.90
51557;DHT22;38766;53.194;5.532;2022-12-20T17:01:32;9.00;99.90
51557;DHT22;38766;53.194;5.532;2022-12-20T17:03:59;9.00;99.90
51557;DHT22;38766;53.194;5.532;2022-12-20T17:06:25;9.00;99.90
51557;DHT22;38766;53.194;5.532;2022-12-20T17:08:51;9.00;99.90
51557;DHT22;38766;53.194;5.532;2022-12-20T17:11:19;8.90;99.90
51557;DHT22;38766;53.194;5.532;2022-12-20T17:13:48;8.90;99.90
51557;DHT22;38766;53.194;5.532;2022-12-20T17:16:15;8.90;99.90
51557;DHT22;38766;53.194;5.532;2022-12-20T17:18:42;8.80;99.90
51557;DHT22;38766;53.194;5.532;2022-12-20T17:23:44;8.70;99.90
51557;DHT22;38766;53.194;5.532;2022-12-20T17:26:22;8.70;99.90
51557;DHT22;38766;53.194;5.532;2022-12-20T17:28:52;8.70;99.90
51557;DHT22;38766;53.194;5.532;2022-12-20T17:31:36;8.70;99.90
51557;DHT22;38766;53.194;5.532;2022-12-20T17:34:16;8.60;99.90
51557;DHT22;38766;53.194;5.532;2022-12-20T17:36:43;8.60;99.90
51557;DHT22;38766;53.194;5.532;2022-12-20T17:39:09;8.60;99.90
51557;DHT22;38766;53.194;5.532;2022-12-20T17:41:42;8.60;99.90
51557;DHT22;38766;53.194;5.532;2022-12-20T17:44:19;8.50;99.90
51557;DHT22;38766;53.194;5.532;2022-12-20T17:46:46;8.60;99.90
51557;DHT22;38766;53.194;5.532;2022-12-20T17:49:13;8.50;99.90
51557;DHT22;38766;53.194;5.532;2022-12-20T17:51:39;8.50;99.90
51557;DHT22;38766;53.194;5.532;2022-12-20T17:54:05;8.50;99.90
51557;DHT22;38766;53.194;5.532;2022-12-20T17:56:34;8.50;99.90
51557;DHT22;38766;53.194;5.532;2022-12-20T17:59:02;8.50;99.90
51557;DHT22;38766;53.194;5.532;2022-12-20T18:01:33;8.50;99.90
51557;DHT22;38766;53.194;5.532;2022-12-20T18:04:03;8.40;99.90
51557;DHT22;38766;53.194;5.532;2022-12-20T18:06:34;8.50;99.90
51557;DHT22;38766;53.194;5.532;2022-12-20T18:09:02;8.40;99.90
51557;DHT22;38766;53.194;5.532;2022-12-20T18:11:28;8.40;99.90
51557;DHT22;38766;53.194;5.532;2022-12-20T18:13:56;8.40;99.90
51557;DHT22;38766;53.194;5.532;2022-12-20T18:16:28;8.40;99.90
51557;DHT22;38766;53.194;5.532;2022-12-20T18:18:55;8.40;99.90
51557;DHT22;38766;53.194;5.532;2022-12-20T18:21:22;8.40;99.90
51557;DHT22;38766;53.194;5.532;2022-12-20T18:23:49;8.40;99.90
51557;DHT22;38766;53.194;5.532;2022-12-20T18:26:22;8.40;99.90
51557;DHT22;38766;53.194;5.532;2022-12-20T18:28:50;8.40;99.90
51557;DHT22;38766;53.194;5.532;2022-12-20T18:31:21;8.40;99.90
51557;DHT22;38766;53.194;5.532;2022-12-20T18:33:47;8.40;99.90
51557;DHT22;38766;53.194;5.532;2022-12-20T18:36:15;8.40;99.90
51557;DHT22;38766;53.194;5.532;2022-12-20T18:38:43;8.40;99.90
51557;DHT22;38766;53.194;5.532;2022-12-20T18:41:14;8.50;99.90
51557;DHT22;38766;53.194;5.532;2022-12-20T18:43:40;8.30;99.90
51557;DHT22;38766;53.194;5.532;2022-12-20T18:46:18;8.40;99.90
51557;DHT22;38766;53.194;5.532;2022-12-20T18:48:45;8.40;99.90
51557;DHT22;38766;53.194;5.532;2022-12-20T18:51:13;8.40;99.90
51557;DHT22;38766;53.194;5.532;2022-12-20T18:53:40;8.30;99.90
51557;DHT22;38766;53.194;5.532;2022-12-20T18:56:12;8.40;99.90
51557;DHT22;38766;53.194;5.532;2022-12-20T18:58:41;8.40;99.90
51557;DHT22;38766;53.194;5.532;2022-12-20T19:01:25;8.30;99.90
51557;DHT22;38766;53.194;5.532;2022-12-20T19:03:51;8.30;99.90
51557;DHT22;38766;53.194;5.532;2022-12-20T19:06:18;8.30;99.90
51557;DHT22;38766;53.194;5.532;2022-12-20T19:08:44;8.30;99.90
51557;DHT22;38766;53.194;5.532;2022-12-20T19:11:21;8.30;99.90
51557;DHT22;38766;53.194;5.532;2022-12-20T19:13:48;8.20;99.90
51557;DHT22;38766;53.194;5.532;2022-12-20T19:18:40;8.20;99.90
51557;DHT22;38766;53.194;5.532;2022-12-20T19:21:11;8.30;99.90
51557;DHT22;38766;53.194;5.532;2022-12-20T19:23:38;8.20;99.90
51557;DHT22;38766;53.194;5.532;2022-12-20T19:26:07;8.30;99.90
51557;DHT22;38766;53.194;5.532;2022-12-20T19:28:33;8.30;99.90
51557;DHT22;38766;53.194;5.532;2022-12-20T19:31:17;8.30;99.90
51557;DHT22;38766;53.194;5.532;2022-12-20T19:33:45;8.20;99.90
51557;DHT22;38766;53.194;5.532;2022-12-20T19:36:13;8.10;99.90
51557;DHT22;38766;53.194;5.532;2022-12-20T19:38:44;8.20;99.90